createdAt,value
2022-09-10T00:02:41.151Z,14.72
2022-09-10T00:05:29.601Z,14.69
2022-09-10T00:08:18.699Z,14.56
2022-09-10T00:11:08.081Z,14.75
2022-09-10T00:13:57.418Z,14.78
2022-09-10T00:16:44.865Z,14.72
2022-09-10T00:19:32.405Z,14.59
2022-09-10T00:22:20.388Z,14.58
2022-09-10T00:25:08.539Z,14.57
2022-09-10T00:27:56.483Z,14.61
2022-09-10T00:30:46.699Z,14.64
2022-09-10T00:33:34.226Z,14.66
2022-09-10T00:36:24.722Z,14.60
2022-09-10T00:39:20.625Z,14.71
2022-09-10T07:45:03.993Z,15.93
2022-09-10T07:47:51.823Z,16.20
2022-09-10T07:50:39.227Z,16.42
2022-09-10T07:53:26.588Z,16.68
2022-09-10T07:56:14.005Z,16.78
2022-09-10T07:59:02.647Z,16.87
2022-09-10T08:01:50.266Z,16.98
2022-09-10T08:04:37.652Z,17.07
2022-09-10T08:07:24.987Z,17.25
2022-09-10T08:10:13.517Z,17.38
2022-09-10T08:13:00.866Z,17.64
2022-09-10T08:15:48.764Z,17.80
2022-09-10T08:18:36.603Z,17.96
2022-09-10T08:21:25.844Z,18.15
2022-09-10T08:24:13.633Z,18.13
2022-09-10T08:27:00.929Z,18.34
2022-09-10T08:29:48.366Z,18.43
2022-09-10T08:32:36.084Z,18.38
2022-09-10T08:35:24.443Z,18.49
2022-09-10T08:38:13.020Z,18.49
2022-09-10T08:41:02.391Z,18.55
2022-09-10T08:43:58.004Z,18.46
2022-09-10T08:46:49.844Z,18.43
2022-09-10T08:49:48.985Z,18.58
2022-09-10T08:52:41.838Z,18.79
2022-09-10T08:55:35.740Z,18.86
2022-09-10T08:58:28.515Z,19.00
2022-09-10T09:01:32.245Z,19.00
2022-09-10T09:04:34.574Z,19.08
2022-09-10T09:07:22.397Z,19.25
2022-09-10T09:10:25.261Z,19.55
2022-09-10T09:13:26.916Z,19.60
2022-09-10T09:16:35.551Z,19.55
2022-09-10T09:19:34.129Z,19.55
2022-09-10T09:22:38.098Z,19.54
2022-09-10T09:25:38.666Z,19.64
2022-09-10T09:28:43.594Z,19.78
2022-09-10T09:31:38.732Z,19.77
2022-09-10T09:34:36.649Z,19.83
2022-09-10T09:37:27.177Z,19.76
2022-09-10T09:40:20.765Z,19.63
2022-09-10T09:43:21.423Z,19.64
2022-09-10T09:46:15.850Z,19.70
2022-09-10T09:49:03.581Z,19.77
2022-09-10T09:51:52.097Z,19.81
2022-09-10T09:55:13.030Z,19.93
2022-09-10T09:58:21.666Z,20.16
2022-09-10T10:01:39.851Z,20.11
2022-09-10T10:04:31.166Z,20.31
2022-09-10T10:07:25.989Z,20.18
2022-09-10T10:10:24.330Z,20.42
2022-09-10T10:13:21.661Z,20.60
2022-09-10T10:16:22.653Z,20.77
2022-09-10T10:19:36.929Z,20.83
2022-09-10T10:22:27.124Z,20.92
2022-09-10T10:25:40.768Z,20.93
2022-09-10T10:28:28.720Z,21.03
2022-09-10T10:31:17.300Z,21.09
2022-09-10T10:34:16.878Z,21.16
2022-09-10T10:37:19.748Z,21.16
2022-09-10T10:40:15.992Z,21.34
2022-09-10T10:43:15.124Z,21.45
2022-09-10T10:46:18.719Z,21.60
2022-09-10T10:49:11.953Z,21.86
2022-09-10T10:52:21.789Z,22.15
2022-09-10T10:55:28.239Z,22.32
2022-09-10T10:59:00.946Z,22.40
2022-09-10T11:01:53.514Z,22.58
2022-09-10T11:04:46.126Z,22.96
2022-09-10T11:07:39.893Z,23.28
2022-09-10T11:10:39.323Z,23.28
2022-09-10T11:13:36.721Z,23.36
2022-09-10T11:16:28.951Z,23.67
2022-09-10T11:19:22.306Z,23.83
2022-09-10T11:22:23.846Z,23.64
2022-09-10T11:25:13.971Z,23.57
2022-09-10T11:28:14.236Z,23.45
2022-09-10T11:31:12.907Z,23.24
2022-09-10T11:34:28.691Z,23.39
2022-09-10T11:38:04.331Z,23.17
2022-09-10T11:41:06.616Z,23.13
2022-09-10T11:44:11.048Z,23.20
2022-09-10T11:47:06.856Z,23.35
2022-09-10T11:50:01.553Z,23.66
2022-09-10T11:52:49.421Z,23.68
2022-09-10T11:55:55.253Z,23.47
2022-09-10T11:59:08.855Z,23.68
2022-09-10T12:02:27.364Z,24.33
2022-09-10T12:05:51.930Z,24.19
2022-09-10T12:08:55.469Z,23.91
2022-09-10T12:12:25.609Z,23.58
2022-09-10T12:15:23.301Z,23.73
2022-09-10T12:18:17.429Z,23.69
2022-09-10T12:21:13.849Z,24.66
2022-09-10T12:24:03.804Z,25.58
2022-09-10T12:26:52.373Z,25.98
2022-09-10T12:29:40.864Z,25.98
2022-09-10T12:32:29.861Z,26.26
2022-09-10T12:35:35.488Z,25.28
2022-09-10T12:38:44.477Z,25.27
2022-09-10T12:41:31.879Z,24.20
2022-09-10T12:44:34.735Z,23.42
2022-09-10T12:47:43.596Z,23.03
2022-09-10T12:50:35.050Z,22.83
2022-09-10T12:53:31.812Z,23.07
2022-09-10T12:56:57.910Z,23.19
2022-09-10T13:00:04.263Z,22.81
2022-09-10T13:02:58.564Z,22.92
2022-09-10T13:05:47.457Z,23.00
2022-09-10T13:08:41.690Z,23.18
2022-09-10T13:11:33.464Z,23.49
2022-09-10T13:14:26.351Z,23.56
2022-09-10T13:17:35.471Z,23.55
2022-09-10T13:20:22.744Z,23.89
2022-09-10T13:23:10.343Z,24.23
2022-09-10T13:26:31.169Z,24.43
2022-09-10T13:29:39.847Z,24.48
2022-09-10T13:32:40.043Z,25.29
2022-09-10T13:35:49.565Z,25.93
2022-09-10T13:39:04.884Z,26.12
2022-09-10T13:42:30.325Z,26.08
2022-09-10T13:45:28.361Z,26.32
2022-09-10T13:48:52.609Z,27.97
2022-09-10T13:51:54.533Z,29.69
2022-09-10T13:54:56.018Z,29.94
2022-09-10T13:57:47.309Z,29.96
2022-09-10T14:00:42.190Z,29.35
2022-09-10T14:03:32.967Z,28.69
2022-09-10T14:06:25.115Z,28.54
2022-09-10T14:09:12.643Z,28.14
2022-09-10T14:12:03.861Z,28.36
2022-09-10T14:14:57.222Z,27.80
2022-09-10T14:17:50.735Z,28.07
2022-09-10T14:20:40.092Z,27.79
2022-09-10T14:23:29.940Z,27.64
2022-09-10T14:26:26.544Z,27.42
2022-09-10T14:29:24.611Z,26.51
2022-09-10T14:32:25.828Z,26.64
2022-09-10T14:35:31.665Z,26.48
2022-09-10T14:38:23.564Z,26.73
2022-09-10T14:41:21.742Z,27.13
2022-09-10T14:44:20.385Z,27.14
2022-09-10T14:47:10.771Z,27.71
2022-09-10T14:50:24.909Z,28.52
2022-09-10T14:53:12.447Z,28.97
2022-09-10T14:56:00.264Z,29.75
2022-09-10T14:58:51.108Z,30.50
2022-09-10T15:01:40.985Z,30.84
2022-09-10T15:04:30.221Z,30.57
2022-09-10T15:07:17.731Z,30.42
2022-09-10T15:10:05.638Z,30.53
2022-09-10T15:12:53.254Z,30.54
2022-09-10T15:15:40.984Z,29.84
2022-09-10T15:18:28.246Z,28.83
2022-09-10T15:21:16.362Z,28.16
2022-09-10T15:24:04.147Z,27.82
2022-09-10T15:26:52.557Z,26.90
2022-09-10T15:29:40.135Z,26.87
2022-09-10T15:32:27.437Z,26.62
2022-09-10T15:35:14.765Z,26.37
2022-09-10T15:38:02.173Z,26.06
2022-09-10T15:40:50.159Z,25.71
2022-09-10T15:43:39.885Z,24.87
2022-09-10T15:46:27.444Z,24.65
2022-09-10T15:49:14.755Z,24.38
2022-09-10T15:52:02.893Z,23.86
2022-09-10T15:54:50.217Z,23.44
2022-09-10T15:57:37.630Z,23.14
2022-09-10T16:00:25.061Z,23.01
2022-09-10T16:03:12.385Z,22.73
2022-09-10T16:06:01.849Z,22.75
2022-09-10T16:08:51.134Z,22.52
2022-09-10T16:11:40.459Z,22.35
2022-09-10T16:14:27.912Z,22.29
2022-09-10T16:17:17.409Z,22.00
2022-09-10T16:20:05.325Z,21.21
2022-09-10T16:22:53.716Z,20.50
2022-09-10T16:25:53.168Z,19.49
2022-09-10T16:28:41.585Z,19.30
2022-09-10T16:31:39.655Z,19.09
2022-09-10T16:34:26.996Z,18.90
2022-09-10T16:37:14.295Z,18.72
2022-09-10T16:40:02.067Z,18.70
2022-09-10T16:42:49.720Z,18.68
2022-09-10T16:45:37.342Z,18.78
2022-09-10T16:48:24.916Z,18.72
2022-09-10T16:51:18.003Z,18.66
2022-09-10T16:54:06.778Z,18.53
2022-09-10T16:56:54.060Z,18.51
2022-09-10T16:59:41.367Z,18.42
2022-09-10T17:02:30.774Z,18.27
2022-09-10T17:05:18.279Z,18.28
2022-09-10T17:08:06.361Z,18.33
2022-09-10T17:10:54.453Z,18.45
2022-09-10T17:13:42.486Z,18.58
2022-09-10T17:16:32.810Z,18.66
2022-09-10T17:19:26.579Z,18.73
2022-09-10T17:22:13.931Z,18.74
2022-09-10T17:25:01.515Z,18.70
2022-09-10T17:27:48.833Z,18.69
2022-09-10T17:30:36.096Z,18.67
2022-09-10T17:33:27.141Z,18.63
2022-09-10T17:36:14.855Z,18.74
2022-09-10T17:39:02.214Z,18.75
2022-09-10T17:41:50.259Z,18.74
2022-09-10T17:44:37.545Z,18.67
2022-09-10T17:47:25.178Z,18.71
2022-09-10T17:50:12.770Z,18.61
2022-09-10T17:53:00.029Z,18.54
2022-09-10T17:55:47.788Z,18.51
2022-09-10T17:58:35.608Z,18.42
2022-09-10T18:01:28.419Z,18.44
2022-09-10T18:04:15.822Z,18.38
2022-09-10T18:07:03.498Z,18.32
2022-09-10T18:09:50.889Z,18.30
2022-09-10T18:12:38.252Z,18.26
2022-09-10T18:15:27.153Z,18.27
2022-09-10T18:18:14.423Z,18.20
2022-09-10T18:21:12.069Z,18.16
2022-09-10T18:24:03.778Z,18.09
2022-09-10T18:26:53.764Z,18.05
2022-09-10T18:29:42.254Z,17.97
2022-09-10T18:32:29.753Z,18.02
2022-09-10T18:35:17.782Z,17.98
2022-09-10T18:38:05.592Z,18.04
2022-09-10T18:40:54.382Z,17.99
2022-09-10T18:43:41.821Z,17.98
2022-09-10T18:46:30.018Z,18.00
2022-09-10T18:49:21.350Z,17.98
2022-09-10T18:52:13.113Z,17.93
2022-09-10T18:55:00.724Z,17.92
2022-09-10T18:57:48.067Z,17.98
2022-09-10T19:00:35.657Z,17.90
2022-09-10T19:03:22.936Z,17.87
2022-09-10T19:06:13.123Z,17.86
2022-09-10T19:09:08.868Z,17.82
2022-09-10T19:11:59.381Z,17.79
2022-09-10T19:14:46.673Z,17.76
2022-09-10T19:17:34.415Z,17.73
2022-09-10T19:20:22.011Z,17.75
2022-09-10T19:23:09.822Z,17.65
2022-09-10T19:25:57.397Z,17.65
2022-09-10T19:28:45.650Z,17.65
2022-09-10T19:31:34.724Z,17.60
2022-09-10T19:34:22.537Z,17.58
2022-09-10T19:37:09.985Z,17.52
2022-09-10T19:39:57.429Z,17.42
2022-09-10T19:42:44.769Z,17.43
2022-09-10T19:45:32.160Z,17.37
2022-09-10T19:48:20.069Z,17.37
2022-09-10T19:51:10.431Z,17.28
2022-09-10T19:54:00.345Z,17.19
2022-09-10T19:56:47.766Z,16.99
2022-09-10T19:59:35.928Z,16.89
2022-09-10T20:02:23.659Z,16.95
2022-09-10T20:05:11.064Z,16.98
2022-09-10T20:07:58.360Z,16.93
2022-09-10T20:10:51.912Z,16.93
2022-09-10T20:13:39.588Z,16.96
2022-09-10T20:16:28.181Z,17.02
2022-09-10T20:19:18.446Z,16.85
2022-09-10T20:22:06.249Z,16.93
2022-09-10T20:24:53.597Z,16.89
2022-09-10T20:27:40.964Z,16.88
2022-09-10T20:30:28.505Z,16.98
2022-09-10T20:33:16.710Z,17.02
2022-09-10T20:36:06.376Z,17.10
2022-09-10T20:38:54.445Z,17.14
2022-09-10T20:41:43.191Z,17.14
2022-09-10T20:44:33.491Z,17.12
2022-09-10T20:47:24.238Z,17.03
2022-09-10T20:50:13.651Z,17.13
2022-09-10T20:53:01.826Z,17.13
2022-09-10T20:55:49.429Z,17.19
2022-09-10T20:58:37.912Z,17.22
2022-09-10T21:01:27.716Z,17.22
2022-09-10T21:04:15.198Z,17.25
2022-09-10T21:07:02.549Z,17.09
2022-09-10T21:09:49.997Z,17.08
2022-09-10T21:12:37.431Z,17.20
2022-09-10T21:15:24.784Z,17.20
2022-09-10T21:18:13.287Z,17.22
2022-09-10T21:21:12.452Z,17.05
2022-09-10T21:24:04.921Z,17.09
2022-09-10T21:26:53.398Z,17.09
2022-09-10T21:29:40.707Z,17.07
2022-09-10T21:32:28.313Z,17.05
2022-09-10T21:35:16.363Z,16.94
2022-09-10T21:38:03.773Z,16.94
2022-09-10T21:40:58.917Z,16.93
2022-09-10T21:43:47.225Z,16.80
2022-09-10T21:46:34.951Z,16.85
2022-09-10T21:49:22.377Z,16.89
2022-09-10T21:52:10.148Z,16.82
2022-09-10T21:54:57.694Z,16.83
2022-09-10T21:57:45.309Z,16.79
2022-09-10T22:00:32.897Z,16.84
2022-09-10T22:03:20.345Z,16.80
2022-09-10T22:06:13.726Z,16.87
2022-09-10T22:09:03.896Z,16.82
2022-09-10T22:11:54.318Z,16.84
2022-09-10T22:14:41.723Z,16.78
2022-09-10T22:17:29.064Z,16.85
2022-09-10T22:20:16.413Z,16.92
2022-09-10T22:23:04.334Z,16.79
2022-09-10T22:25:55.439Z,16.69
2022-09-10T22:28:43.322Z,16.65
2022-09-10T22:31:33.379Z,16.67
2022-09-10T22:34:20.829Z,16.76
2022-09-10T22:37:08.162Z,16.75
2022-09-10T22:39:55.775Z,16.76
2022-09-10T22:42:43.238Z,16.80
2022-09-10T22:45:32.463Z,16.83
2022-09-10T22:48:19.728Z,16.85
2022-09-10T22:51:11.338Z,16.81
2022-09-10T22:53:59.366Z,16.82
2022-09-10T22:56:46.732Z,16.74
2022-09-10T22:59:37.737Z,16.88
2022-09-10T23:02:25.301Z,16.92
2022-09-10T23:05:13.124Z,16.87
2022-09-10T23:08:00.734Z,16.92
2022-09-10T23:10:48.306Z,16.94
2022-09-10T23:13:36.223Z,16.93
2022-09-10T23:16:32.225Z,17.02
2022-09-10T23:19:22.387Z,17.05
2022-09-10T23:22:10.432Z,16.95
2022-09-10T23:24:58.274Z,16.93
2022-09-10T23:27:48.391Z,16.92
2022-09-10T23:30:36.236Z,16.93
2022-09-10T23:33:23.618Z,16.92
2022-09-10T23:36:13.571Z,16.98
2022-09-10T23:39:04.494Z,16.92
2022-09-10T23:41:54.620Z,16.93
2022-09-10T23:44:44.390Z,16.90
2022-09-10T23:47:31.741Z,16.90
2022-09-10T23:50:19.010Z,16.91
2022-09-10T23:53:06.677Z,16.88
2022-09-10T23:55:54.799Z,16.92
2022-09-10T23:58:42.097Z,16.94
